createdAt,value
2019-05-23T00:01:09.100Z,1.93
2019-05-23T00:03:45.849Z,3.42
2019-05-23T00:06:18.579Z,3.50
2019-05-23T00:08:49.775Z,3.42
2019-05-23T00:11:40.176Z,2.07
2019-05-23T00:14:23.087Z,2.83
2019-05-23T00:16:54.589Z,4.53
2019-05-23T00:19:24.998Z,2.83
2019-05-23T00:21:56.049Z,3.40
2019-05-23T00:24:26.946Z,3.10
2019-05-23T00:26:57.554Z,3.27
2019-05-23T00:29:28.490Z,3.27
2019-05-23T00:32:03.136Z,2.90
2019-05-23T00:34:33.907Z,6.37
2019-05-23T00:37:04.480Z,2.80
2019-05-23T00:39:35.449Z,3.12
2019-05-23T00:42:06.373Z,3.50
2019-05-23T00:44:37.253Z,6.90
2019-05-23T00:47:06.497Z,3.22
2019-05-23T00:49:35.872Z,6.90
2019-05-23T00:52:05.992Z,2.92
2019-05-23T00:54:35.488Z,3.70
2019-05-23T00:57:06.492Z,6.22
2019-05-23T00:59:35.733Z,3.70
2019-05-23T01:02:06.114Z,4.15
2019-05-23T01:04:37.406Z,5.15
2019-05-23T01:07:07.972Z,3.80
2019-05-23T01:09:38.391Z,7.62
2019-05-23T01:12:09.108Z,3.42
2019-05-23T01:14:39.274Z,4.97
2019-05-23T01:17:10.155Z,3.83
2019-05-23T01:19:40.171Z,3.92
2019-05-23T01:22:11.548Z,4.90
2019-05-23T01:24:43.417Z,3.20
2019-05-23T01:27:13.754Z,3.70
2019-05-23T01:29:50.325Z,3.42
2019-05-23T01:32:25.301Z,2.95
2019-05-23T01:34:55.377Z,5.00
2019-05-23T01:37:24.874Z,3.20
2019-05-23T01:39:54.835Z,3.10
2019-05-23T01:42:26.349Z,4.50
2019-05-23T01:44:57.423Z,5.10
2019-05-23T01:47:28.314Z,3.33
2019-05-23T01:49:58.045Z,6.03
2019-05-23T01:52:27.667Z,4.87
2019-05-23T01:54:57.135Z,5.17
2019-05-23T01:57:26.419Z,5.25
2019-05-23T02:00:08.792Z,4.40
2019-05-23T02:02:29.157Z,4.65
2019-05-23T02:04:59.349Z,3.70
2019-05-23T02:07:30.256Z,4.30
2019-05-23T02:09:59.494Z,3.75
2019-05-23T02:12:28.901Z,5.00
2019-05-23T02:14:59.579Z,4.95
2019-05-23T02:17:30.328Z,4.05
2019-05-23T02:20:01.685Z,3.65
2019-05-23T02:22:32.072Z,7.87
2019-05-23T02:25:02.032Z,3.95
2019-05-23T02:27:31.581Z,4.90
2019-05-23T02:30:01.383Z,5.97
2019-05-23T02:32:31.283Z,4.03
2019-05-23T02:35:00.618Z,6.30
2019-05-23T02:37:47.680Z,5.85
2019-05-23T02:40:22.889Z,5.22
2019-05-23T02:42:57.522Z,4.03
2019-05-23T02:45:33.974Z,6.20
2019-05-23T02:48:03.283Z,7.83
2019-05-23T02:50:40.358Z,7.12
2019-05-23T02:53:13.595Z,4.90
2019-05-23T02:55:43.763Z,7.28
2019-05-23T02:58:28.712Z,4.10
2019-05-23T03:01:12.651Z,6.17
2019-05-23T03:03:41.990Z,5.62
2019-05-23T03:06:17.535Z,6.80
2019-05-23T03:08:49.061Z,4.85
2019-05-23T03:11:39.894Z,4.87
2019-05-23T03:14:11.561Z,5.92
2019-05-23T03:16:43.835Z,5.35
2019-05-23T03:19:21.622Z,5.55
2019-05-23T03:21:54.372Z,6.55
2019-05-23T03:24:24.898Z,4.65
2019-05-23T03:27:01.439Z,5.05
2019-05-23T03:29:33.445Z,9.53
2019-05-23T03:32:18.649Z,4.55
2019-05-23T03:34:50.774Z,5.42
2019-05-23T03:37:21.944Z,6.40
2019-05-23T03:39:51.623Z,6.30
2019-05-23T03:42:22.322Z,5.90
2019-05-23T03:44:51.590Z,9.30
2019-05-23T03:47:21.802Z,6.75
2019-05-23T03:49:52.781Z,4.60
2019-05-23T03:52:23.625Z,5.65
2019-05-23T03:54:54.388Z,5.92
2019-05-23T03:57:26.162Z,6.85
2019-05-23T03:59:56.853Z,6.90
2019-05-23T04:02:27.021Z,10.60
2019-05-23T04:04:57.313Z,5.25
2019-05-23T04:07:26.516Z,10.00
2019-05-23T04:09:55.750Z,5.42
2019-05-23T04:12:25.210Z,14.40
2019-05-23T04:14:55.414Z,8.05
2019-05-23T04:17:24.846Z,5.50
2019-05-23T04:19:54.645Z,7.00
2019-05-23T04:22:24.446Z,5.97
2019-05-23T04:24:53.760Z,4.53
2019-05-23T04:27:23.760Z,5.58
2019-05-23T04:29:53.475Z,5.05
2019-05-23T04:32:22.685Z,6.37
2019-05-23T04:34:52.732Z,4.53
2019-05-23T04:37:22.031Z,4.70
2019-05-23T04:39:51.312Z,5.10
2019-05-23T04:42:20.899Z,6.22
2019-05-23T04:44:50.139Z,8.73
2019-05-23T04:47:19.709Z,4.58
2019-05-23T04:49:49.374Z,4.45
2019-05-23T04:52:18.607Z,6.75
2019-05-23T04:54:47.952Z,12.20
2019-05-23T04:57:18.066Z,5.22
2019-05-23T04:59:48.103Z,6.08
2019-05-23T05:02:26.409Z,5.33
2019-05-23T05:04:49.843Z,8.60
2019-05-23T05:07:19.162Z,5.00
2019-05-23T05:09:48.436Z,8.40
2019-05-23T05:12:18.484Z,6.72
2019-05-23T05:14:48.467Z,5.40
2019-05-23T05:17:18.460Z,6.67
2019-05-23T05:19:47.944Z,12.18
2019-05-23T05:22:17.592Z,10.53
2019-05-23T05:24:46.987Z,7.30
2019-05-23T05:27:16.541Z,12.37
2019-05-23T05:29:45.732Z,11.80
2019-05-23T05:32:15.770Z,11.30
2019-05-23T05:34:45.106Z,12.07
2019-05-23T05:37:14.354Z,10.77
2019-05-23T05:39:43.723Z,8.53
2019-05-23T05:42:13.092Z,13.23
2019-05-23T05:44:42.451Z,10.53
2019-05-23T05:47:11.683Z,9.67
2019-05-23T05:49:42.463Z,8.33
2019-05-23T05:52:12.833Z,8.43
2019-05-23T05:54:42.170Z,11.33
2019-05-23T05:57:11.898Z,10.23
2019-05-23T05:59:41.168Z,14.17
2019-05-23T06:02:12.789Z,8.60
2019-05-23T06:04:42.488Z,10.33
2019-05-23T06:07:25.344Z,8.20
2019-05-23T06:09:54.768Z,8.20
2019-05-23T06:12:24.096Z,10.07
2019-05-23T06:14:53.341Z,10.10
2019-05-23T06:17:23.279Z,9.43
2019-05-23T06:19:53.185Z,10.47
2019-05-23T06:22:23.730Z,9.83
2019-05-23T06:24:55.228Z,10.20
2019-05-23T06:27:24.461Z,10.90
2019-05-23T06:29:54.246Z,12.50
2019-05-23T06:32:26.041Z,12.50
2019-05-23T06:34:56.040Z,16.37
2019-05-23T06:37:25.428Z,14.60
2019-05-23T06:39:54.719Z,13.03
2019-05-23T06:42:24.041Z,14.23
2019-05-23T06:44:53.373Z,16.53
2019-05-23T06:47:22.801Z,16.53
2019-05-23T06:49:52.374Z,13.20
2019-05-23T06:52:21.633Z,12.30
2019-05-23T06:54:50.920Z,10.63
2019-05-23T06:57:20.743Z,12.07
2019-05-23T06:59:50.072Z,10.93
2019-05-23T07:02:19.326Z,16.83
2019-05-23T07:04:49.281Z,15.17
2019-05-23T07:07:18.592Z,15.43
2019-05-23T07:09:48.278Z,18.77
2019-05-23T07:12:17.624Z,14.50
2019-05-23T07:14:46.956Z,15.07
2019-05-23T07:17:20.033Z,12.40
2019-05-23T07:19:49.296Z,14.67
2019-05-23T07:22:19.703Z,11.30
2019-05-23T07:24:58.024Z,12.60
2019-05-23T07:27:21.150Z,14.83
2019-05-23T07:29:51.260Z,13.17
2019-05-23T07:32:20.594Z,16.40
2019-05-23T07:34:49.813Z,16.20
2019-05-23T07:37:19.228Z,18.93
2019-05-23T07:39:48.808Z,14.33
2019-05-23T07:42:18.461Z,14.47
2019-05-23T07:44:49.381Z,20.23
2019-05-23T07:47:18.632Z,15.90
2019-05-23T07:49:48.406Z,14.37
2019-05-23T07:52:17.798Z,19.53
2019-05-23T07:55:04.414Z,13.60
2019-05-23T07:57:33.741Z,16.30
2019-05-23T08:00:04.628Z,14.83
2019-05-23T08:02:37.884Z,16.13
2019-05-23T08:05:09.285Z,12.90
2019-05-23T08:07:39.842Z,17.57
2019-05-23T08:10:09.965Z,13.87
2019-05-23T08:12:39.737Z,12.00
2019-05-23T08:15:09.624Z,16.60
2019-05-23T08:17:39.042Z,10.90
2019-05-23T08:20:09.708Z,14.90
2019-05-23T08:22:39.009Z,10.60
2019-05-23T08:25:08.481Z,13.40
2019-05-23T08:27:37.795Z,15.53
2019-05-23T08:30:07.904Z,10.47
2019-05-23T08:32:37.282Z,10.33
2019-05-23T08:35:07.013Z,13.37
2019-05-23T10:16:57.136Z,3.10
